Time,TemperatureF,DewpointF,PressureIn,WindDirection,WindDirectionDegrees,WindSpeedMPH,WindSpeedGustMPH,Humidity,HourlyPrecipIn,Conditions,Clouds,dailyrainin,SoftwareType,DateUTC
2013-02-23 00:00:00,11.1,-11.2,29.98,WSW,239,0.0,0.0,35,0.00,,,0.00,meteohub,2013-02-23 06:00:00,
2013-02-23 00:05:00,10.9,-11.4,29.98,WSW,239,0.0,0.0,35,0.00,,,0.00,meteohub,2013-02-23 06:05:00,
2013-02-23 00:10:00,10.9,-11.4,29.98,WSW,239,0.0,0.0,35,0.00,,,0.00,meteohub,2013-02-23 06:10:00,
2013-02-23 00:15:00,10.9,-11.4,29.98,WSW,239,0.0,0.0,35,0.00,,,0.00,meteohub,2013-02-23 06:15:00,
2013-02-23 00:22:00,10.9,-11.4,29.98,WSW,239,0.0,3.0,35,-99.99,,,0.00,meteohub,2013-02-23 06:22:00,
2013-02-23 00:27:00,10.9,-11.4,29.98,WSW,239,0.0,3.0,35,-99.99,,,0.00,meteohub,2013-02-23 06:27:00,
2013-02-23 00:32:00,10.9,-11.4,29.98,WSW,239,0.0,3.0,35,-99.99,,,0.00,meteohub,2013-02-23 06:32:00,
2013-02-23 00:37:00,10.8,-11.6,29.98,WSW,238,0.0,0.0,35,-99.99,,,0.00,meteohub,2013-02-23 06:37:00,
2013-02-23 00:42:00,10.6,-11.7,29.98,WSW,239,0.0,0.0,35,0.00,,,0.00,meteohub,2013-02-23 06:42:00,
2013-02-23 00:47:00,10.4,-11.9,29.98,WSW,239,0.0,0.0,35,0.00,,,0.00,meteohub,2013-02-23 06:47:00,
2013-02-23 00:52:00,10.4,-11.9,29.98,WSW,239,0.0,0.0,35,0.00,,,0.00,meteohub,2013-02-23 06:52:00,
2013-02-23 00:57:00,10.2,-11.9,29.98,WSW,239,0.0,0.0,35,0.00,,,0.00,meteohub,2013-02-23 06:57:00,
2013-02-23 01:02:00,10.2,-11.9,29.98,WSW,239,0.0,0.0,35,0.00,,,0.00,meteohub,2013-02-23 07:02:00,
2013-02-23 01:07:00,10.0,-12.1,29.98,WSW,239,3.0,0.0,35,0.00,,,0.00,meteohub,2013-02-23 07:07:00,
2013-02-23 01:12:00,10.0,-12.1,29.98,WSW,239,0.0,3.0,35,0.00,,,0.00,meteohub,2013-02-23 07:12:00,
2013-02-23 01:17:00,9.7,-12.5,29.98,WSW,239,4.0,4.0,35,0.00,,,0.00,meteohub,2013-02-23 07:17:00,
2013-02-23 01:22:00,9.5,-12.6,29.98,WSW,239,0.0,4.0,35,0.00,,,0.00,meteohub,2013-02-23 07:22:00,
2013-02-23 01:27:00,9.3,-12.8,29.98,WSW,239,0.0,4.0,35,0.00,,,0.00,meteohub,2013-02-23 07:27:00,
2013-02-23 01:32:00,9.1,-13.0,29.98,WSW,239,0.0,4.0,35,0.00,,,0.00,meteohub,2013-02-23 07:32:00,
2013-02-23 01:37:00,9.1,-13.0,29.98,WSW,239,0.0,0.0,35,0.00,,,0.00,meteohub,2013-02-23 07:37:00,
2013-02-23 01:42:00,9.1,-13.0,29.98,WSW,239,0.0,0.0,35,-99.99,,,0.00,meteohub,2013-02-23 07:42:00,
2013-02-23 01:47:00,9.1,-13.0,29.98,WSW,239,0.0,0.0,35,-99.99,,,0.00,meteohub,2013-02-23 07:47:00,
2013-02-23 01:52:00,9.0,-13.2,29.98,WSW,239,0.0,0.0,35,-99.99,,,0.00,meteohub,2013-02-23 07:52:00,
2013-02-23 01:57:00,8.8,-13.4,29.98,WSW,239,0.0,0.0,35,-99.99,,,0.00,meteohub,2013-02-23 07:57:00,
2013-02-23 02:02:00,8.8,-13.4,29.98,WSW,239,0.0,0.0,35,-99.99,,,0.00,meteohub,2013-02-23 08:02:00,
2013-02-23 02:07:00,8.6,-13.5,29.98,WSW,239,0.0,0.0,35,-99.99,,,0.00,meteohub,2013-02-23 08:07:00,
2013-02-23 02:12:00,8.6,-13.5,29.98,WSW,239,0.0,0.0,35,-99.99,,,0.00,meteohub,2013-02-23 08:12:00,
2013-02-23 02:17:00,8.4,-13.5,29.98,WSW,239,0.0,0.0,35,-99.99,,,0.00,meteohub,2013-02-23 08:17:00,
2013-02-23 02:22:00,8.4,-13.5,29.98,WSW,239,0.0,0.0,35,-99.99,,,0.00,meteohub,2013-02-23 08:22:00,
2013-02-23 02:27:00,8.4,-13.5,29.98,WSW,239,0.0,0.0,35,-99.99,,,0.00,meteohub,2013-02-23 08:27:00,
2013-02-23 02:32:00,8.4,-13.5,29.98,WSW,239,2.0,0.0,35,-99.99,,,0.00,meteohub,2013-02-23 08:32:00,
2013-02-23 02:37:00,8.1,-13.9,29.98,WSW,239,3.0,4.0,35,-99.99,,,0.00,meteohub,2013-02-23 08:37:00,
2013-02-23 02:42:00,7.9,-14.1,29.98,WSW,239,0.0,4.0,35,-99.99,,,0.00,meteohub,2013-02-23 08:42:00,
2013-02-23 02:47:00,7.9,-14.1,29.95,WSW,239,0.0,4.0,35,-99.99,,,0.00,meteohub,2013-02-23 08:47:00,
2013-02-23 02:52:00,7.9,-14.1,29.95,WSW,239,0.0,4.0,35,-99.99,,,0.00,meteohub,2013-02-23 08:52:00,
2013-02-23 02:57:00,7.9,-14.1,29.95,WSW,239,0.0,0.0,35,-99.99,,,0.00,meteohub,2013-02-23 08:57:00,
2013-02-23 03:02:00,7.7,-14.3,29.95,WSW,239,0.0,0.0,35,-99.99,,,0.00,meteohub,2013-02-23 09:02:00,
2013-02-23 03:07:00,7.7,-14.3,29.95,WSW,239,0.0,0.0,35,-99.99,,,0.00,meteohub,2013-02-23 09:07:00,
2013-02-23 03:12:00,7.7,-14.3,29.95,WSW,239,0.0,0.0,35,-99.99,,,0.00,meteohub,2013-02-23 09:12:00,
2013-02-23 03:17:00,7.7,-14.3,29.95,WSW,239,0.0,0.0,35,-99.99,,,0.00,meteohub,2013-02-23 09:17:00,
2013-02-23 03:22:00,7.7,-14.3,29.95,WSW,239,0.0,0.0,35,-99.99,,,0.00,meteohub,2013-02-23 09:22:00,
2013-02-23 03:27:00,7.7,-14.3,29.95,WSW,239,0.0,0.0,35,-99.99,,,0.00,meteohub,2013-02-23 09:27:00,
2013-02-23 03:32:00,7.7,-14.3,29.95,WSW,239,0.0,0.0,35,-99.99,,,0.00,meteohub,2013-02-23 09:32:00,
2013-02-23 03:37:00,7.7,-14.3,29.95,WSW,239,0.0,0.0,35,-99.99,,,0.00,meteohub,2013-02-23 09:37:00,
2013-02-23 03:42:00,7.7,-14.3,29.95,WSW,239,0.0,0.0,35,-99.99,,,0.00,meteohub,2013-02-23 09:42:00,
2013-02-23 03:47:00,7.7,-14.3,29.95,WSW,239,0.0,0.0,35,-99.99,,,0.00,meteohub,2013-02-23 09:47:00,
2013-02-23 03:52:00,7.7,-14.3,29.95,WSW,239,0.0,0.0,35,-99.99,,,0.00,meteohub,2013-02-23 09:52:00,
2013-02-23 03:57:00,7.5,-14.4,29.95,WSW,239,0.0,0.0,35,-99.99,,,0.00,meteohub,2013-02-23 09:57:00,
2013-02-23 04:02:00,7.5,-14.4,29.95,WSW,239,0.0,0.0,35,-99.99,,,0.00,meteohub,2013-02-23 10:02:00,
2013-02-23 04:07:00,7.7,-14.3,29.95,WSW,239,3.0,0.0,35,-99.99,,,0.00,meteohub,2013-02-23 10:07:00,
2013-02-23 04:12:00,7.5,-14.4,29.95,WSW,239,0.0,4.0,35,-99.99,,,0.00,meteohub,2013-02-23 10:12:00,
2013-02-23 04:17:00,7.5,-14.4,29.92,WSW,239,3.0,4.0,35,-99.99,,,0.00,meteohub,2013-02-23 10:17:00,
2013-02-23 04:22:00,7.3,-14.6,29.92,WSW,239,2.0,4.0,35,-99.99,,,0.00,meteohub,2013-02-23 10:22:00,
2013-02-23 04:27:00,7.3,-14.6,29.92,WSW,239,0.0,4.0,35,-99.99,,,0.00,meteohub,2013-02-23 10:27:00,
2013-02-23 04:32:00,7.2,-14.8,29.92,WSW,239,0.0,4.0,35,0.00,,,0.00,meteohub,2013-02-23 10:32:00,
2013-02-23 04:37:00,7.0,-15.0,29.92,WSW,239,0.0,4.0,35,0.00,,,0.00,meteohub,2013-02-23 10:37:00,
2013-02-23 04:42:00,7.0,-15.0,29.92,WSW,239,4.0,4.0,35,0.00,,,0.00,meteohub,2013-02-23 10:42:00,
2013-02-23 04:47:00,6.8,-15.0,29.92,WSW,239,3.0,4.0,35,0.00,,,0.00,meteohub,2013-02-23 10:47:00,
2013-02-23 04:52:00,6.8,-15.0,29.92,SW,222,4.0,4.0,35,0.00,,,0.00,meteohub,2013-02-23 10:52:00,
2013-02-23 04:57:00,6.8,-15.0,29.92,SW,214,4.0,6.0,35,0.00,,,0.00,meteohub,2013-02-23 10:57:00,
2013-02-23 05:03:00,6.8,-15.0,29.92,SSW,200,5.0,6.0,35,0.00,,,0.00,meteohub,2013-02-23 11:03:00,
2013-02-23 05:08:00,6.8,-15.0,29.92,SSW,199,3.0,6.0,35,0.00,,,0.00,meteohub,2013-02-23 11:08:00,
2013-02-23 05:13:00,6.8,-15.0,29.92,South,191,3.0,5.0,35,0.00,,,0.00,meteohub,2013-02-23 11:13:00,
2013-02-23 05:18:00,6.8,-15.0,29.92,SSW,192,3.0,5.0,35,0.00,,,0.00,meteohub,2013-02-23 11:18:00,
2013-02-23 05:23:00,7.0,-15.0,29.92,South,186,2.0,5.0,35,0.00,,,0.00,meteohub,2013-02-23 11:23:00,
2013-02-23 05:28:00,6.8,-15.0,29.92,South,185,3.0,5.0,35,0.00,,,0.00,meteohub,2013-02-23 11:28:00,
2013-02-23 05:33:00,6.8,-15.0,29.92,South,186,0.0,4.0,35,0.00,,,0.00,meteohub,2013-02-23 11:33:00,
2013-02-23 05:38:00,6.8,-15.0,29.92,South,186,3.0,4.0,35,0.00,,,0.00,meteohub,2013-02-23 11:38:00,
2013-02-23 05:43:00,7.0,-15.0,29.92,South,184,4.0,4.0,35,0.00,,,0.00,meteohub,2013-02-23 11:43:00,
2013-02-23 05:48:00,7.0,-15.0,29.92,South,183,4.0,4.0,35,0.00,,,0.00,meteohub,2013-02-23 11:48:00,
2013-02-23 05:53:00,7.0,-15.0,29.92,South,183,3.0,5.0,35,0.00,,,0.00,meteohub,2013-02-23 11:53:00,
2013-02-23 05:58:00,7.2,-14.8,29.92,SSW,200,5.0,5.0,35,0.00,,,0.00,meteohub,2013-02-23 11:58:00,
2013-02-23 06:03:00,7.2,-14.8,29.92,South,185,4.0,5.0,35,0.00,,,0.00,meteohub,2013-02-23 12:03:00,
2013-02-23 06:09:00,7.0,-15.0,29.92,South,189,4.0,7.0,35,0.00,,,0.00,meteohub,2013-02-23 12:09:00,
2013-02-23 06:14:00,7.0,-15.0,29.92,SSW,199,3.0,7.0,35,0.00,,,0.00,meteohub,2013-02-23 12:14:00,
2013-02-23 06:19:00,6.8,-15.0,29.92,SSW,199,2.0,5.0,35,0.00,,,0.00,meteohub,2013-02-23 12:19:00,
2013-02-23 06:24:00,6.8,-15.0,29.92,SSW,203,0.0,5.0,35,0.00,,,0.00,meteohub,2013-02-23 12:24:00,
2013-02-23 06:29:00,6.6,-15.2,29.92,SSW,203,0.0,4.0,35,0.00,,,0.00,meteohub,2013-02-23 12:29:00,
2013-02-23 06:34:00,6.4,-15.3,29.92,SSW,203,0.0,4.0,35,0.00,,,0.00,meteohub,2013-02-23 12:34:00,
2013-02-23 06:39:00,6.4,-15.3,29.92,SSW,203,0.0,0.0,35,0.00,,,0.00,meteohub,2013-02-23 12:39:00,
2013-02-23 06:44:00,6.4,-15.3,29.92,SSW,203,0.0,0.0,35,0.00,,,0.00,meteohub,2013-02-23 12:44:00,
2013-02-23 06:49:00,6.4,-15.3,29.92,SSW,203,0.0,0.0,35,0.00,,,0.00,meteohub,2013-02-23 12:49:00,
2013-02-23 06:54:00,6.4,-15.3,29.92,SSW,203,0.0,0.0,35,0.00,,,0.00,meteohub,2013-02-23 12:54:00,
2013-02-23 06:59:00,6.4,-15.3,29.92,SSW,203,0.0,0.0,35,0.00,,,0.00,meteohub,2013-02-23 12:59:00,
2013-02-23 07:04:00,6.4,-15.3,29.92,SSW,203,0.0,0.0,35,0.00,,,0.00,meteohub,2013-02-23 13:04:00,
2013-02-23 07:09:00,6.4,-15.3,29.92,SSW,203,0.0,0.0,35,0.00,,,0.00,meteohub,2013-02-23 13:09:00,
2013-02-23 07:15:00,6.6,-15.2,29.92,SSW,203,0.0,0.0,35,0.00,,,0.00,meteohub,2013-02-23 13:15:00,
2013-02-23 07:20:00,6.6,-15.2,29.92,SSW,203,0.0,0.0,35,0.00,,,0.00,meteohub,2013-02-23 13:20:00,
2013-02-23 07:25:00,6.8,-15.0,29.92,SSW,203,0.0,0.0,35,0.00,,,0.00,meteohub,2013-02-23 13:25:00,
2013-02-23 07:30:00,6.8,-15.0,29.89,SSW,203,0.0,0.0,35,0.00,,,0.00,meteohub,2013-02-23 13:30:00,
2013-02-23 07:35:00,7.0,-15.0,29.89,SSW,203,0.0,0.0,35,0.00,,,0.00,meteohub,2013-02-23 13:35:00,
2013-02-23 07:40:00,7.2,-14.8,29.89,SSW,203,0.0,0.0,35,0.00,,,0.00,meteohub,2013-02-23 13:40:00,
2013-02-23 07:45:00,7.5,-14.4,29.89,SSW,203,0.0,0.0,35,0.00,,,0.00,meteohub,2013-02-23 13:45:00,
2013-02-23 07:50:00,7.9,-14.1,29.89,SSW,203,0.0,0.0,35,0.00,,,0.00,meteohub,2013-02-23 13:50:00,
2013-02-23 07:55:00,8.4,-13.5,29.89,SSW,200,4.0,5.0,35,0.00,,,0.00,meteohub,2013-02-23 13:55:00,
2013-02-23 08:00:00,8.6,-13.5,29.89,SSW,192,4.0,6.0,35,0.00,,,0.00,meteohub,2013-02-23 14:00:00,
2013-02-23 08:05:00,8.8,-13.4,29.89,SSW,197,4.0,6.0,35,0.00,,,0.00,meteohub,2013-02-23 14:05:00,
2013-02-23 08:10:00,9.1,-13.0,29.89,SSW,196,5.0,6.0,35,0.00,,,0.00,meteohub,2013-02-23 14:10:00,
2013-02-23 08:15:00,9.5,-12.6,29.89,SSW,196,3.0,6.0,35,0.00,,,0.00,meteohub,2013-02-23 14:15:00,
2013-02-23 08:20:00,9.9,-12.3,29.89,SSW,193,3.0,6.0,35,0.00,,,0.00,meteohub,2013-02-23 14:20:00,
2013-02-23 08:26:00,10.4,-11.9,29.89,SSW,211,5.0,6.0,35,0.00,,,0.00,meteohub,2013-02-23 14:26:00,
2013-02-23 08:31:00,10.8,-11.6,29.89,SW,215,4.0,5.0,35,0.00,,,0.00,meteohub,2013-02-23 14:31:00,
2013-02-23 08:36:00,11.3,-11.0,29.89,SW,216,0.0,5.0,35,0.00,,,0.00,meteohub,2013-02-23 14:36:00,
2013-02-23 08:41:00,11.8,-10.5,29.89,SW,217,4.0,5.0,35,0.00,,,0.00,meteohub,2013-02-23 14:41:00,
2013-02-23 08:46:00,12.4,-10.1,29.89,SW,214,4.0,5.0,35,0.00,,,0.00,meteohub,2013-02-23 14:46:00,
2013-02-23 08:51:00,12.9,-9.6,29.89,SW,226,4.0,5.0,35,0.00,,,0.00,meteohub,2013-02-23 14:51:00,
2013-02-23 08:56:00,13.6,-8.9,29.89,SW,221,4.0,5.0,35,0.00,,,0.00,meteohub,2013-02-23 14:56:00,
2013-02-23 09:01:00,14.2,-6.7,29.89,SSW,205,4.0,5.0,38,0.00,,,0.00,meteohub,2013-02-23 15:01:00,
2013-02-23 09:06:00,15.3,-6.3,29.89,SSW,194,3.0,6.0,37,0.00,,,0.00,meteohub,2013-02-23 15:06:00,
2013-02-23 09:11:00,16.5,-5.8,29.89,South,181,5.0,6.0,36,0.00,,,0.00,meteohub,2013-02-23 15:11:00,
2013-02-23 09:16:00,17.4,-5.6,29.89,South,184,6.0,6.0,35,0.00,,,0.00,meteohub,2013-02-23 15:16:00,
2013-02-23 09:21:00,17.8,-6.5,29.89,South,191,7.0,8.0,33,0.00,,,0.00,meteohub,2013-02-23 15:21:00,
2013-02-23 09:27:00,18.5,-5.8,29.89,SSW,193,6.0,8.0,33,0.00,,,0.00,meteohub,2013-02-23 15:27:00,
2013-02-23 09:32:00,19.0,-5.3,29.89,South,187,8.0,8.0,33,0.00,,,0.00,meteohub,2013-02-23 15:32:00,
2013-02-23 09:37:00,19.4,-5.1,29.89,South,188,6.0,8.0,33,0.00,,,0.00,meteohub,2013-02-23 15:37:00,
2013-02-23 09:42:00,20.3,-4.2,29.89,South,185,6.0,8.0,33,0.00,,,0.00,meteohub,2013-02-23 15:42:00,
2013-02-23 09:47:00,21.0,-3.6,29.89,South,188,4.0,8.0,33,0.00,,,0.00,meteohub,2013-02-23 15:47:00,
2013-02-23 09:52:00,21.7,-3.6,29.89,SSW,213,4.0,8.0,32,0.00,,,0.00,meteohub,2013-02-23 15:52:00,
2013-02-23 09:57:00,22.5,-2.9,29.89,South,183,6.0,8.0,32,0.00,,,0.00,meteohub,2013-02-23 15:57:00,
2013-02-23 10:02:00,22.8,-4.0,29.89,SSW,198,8.0,9.0,30,0.00,,,0.00,meteohub,2013-02-23 16:02:00,
2013-02-23 10:07:00,23.0,-3.8,29.89,SSW,212,8.0,11.0,30,0.00,,,0.00,meteohub,2013-02-23 16:07:00,
2013-02-23 10:12:00,23.4,-4.2,29.89,SW,218,8.0,11.0,29,0.00,,,0.00,meteohub,2013-02-23 16:12:00,
2013-02-23 10:17:00,23.5,-4.0,29.89,SW,221,9.0,11.0,29,0.00,,,0.00,meteohub,2013-02-23 16:17:00,
2013-02-23 10:22:00,24.3,-3.5,29.89,SSW,206,6.0,10.0,29,0.00,,,0.00,meteohub,2013-02-23 16:22:00,
2013-02-23 10:27:00,24.6,-3.1,29.89,SSW,197,6.0,9.0,29,0.00,,,0.00,meteohub,2013-02-23 16:27:00,
2013-02-23 10:32:00,25.5,-2.4,29.89,SW,217,11.0,11.0,29,0.00,,,0.00,meteohub,2013-02-23 16:32:00,
2013-02-23 10:37:00,26.1,-1.8,29.89,South,184,10.0,11.0,29,0.00,,,0.00,meteohub,2013-02-23 16:37:00,
2013-02-23 10:42:00,26.1,-1.8,29.89,SSW,200,9.0,11.0,29,0.00,,,0.00,meteohub,2013-02-23 16:42:00,
2013-02-23 10:47:00,26.1,-1.8,29.89,SSW,200,9.0,11.0,29,0.00,,,0.00,meteohub,2013-02-23 16:47:00,
2013-02-23 10:53:00,26.2,-1.7,29.89,South,191,8.0,11.0,29,0.00,,,0.00,meteohub,2013-02-23 16:53:00,
2013-02-23 10:58:00,26.6,-1.3,29.89,SW,216,10.0,11.0,29,0.00,,,0.00,meteohub,2013-02-23 16:58:00,
2013-02-23 11:03:00,27.5,-1.3,29.89,SW,227,11.0,12.0,28,0.00,,,0.00,meteohub,2013-02-23 17:03:00,
2013-02-23 11:08:00,27.9,-2.6,29.89,SSW,202,7.0,12.0,26,0.00,,,0.00,meteohub,2013-02-23 17:08:00,
2013-02-23 11:13:00,28.4,-2.2,29.89,SSW,211,5.0,12.0,26,0.00,,,0.00,meteohub,2013-02-23 17:13:00,
2013-02-23 11:18:00,28.4,-2.2,29.89,SW,224,8.0,12.0,26,0.00,,,0.00,meteohub,2013-02-23 17:18:00,
2013-02-23 11:23:00,28.9,-2.6,29.89,WSW,250,6.0,11.0,25,0.00,,,0.00,meteohub,2013-02-23 17:23:00,
2013-02-23 11:28:00,28.9,-2.6,29.89,SSW,192,8.0,11.0,25,0.00,,,0.00,meteohub,2013-02-23 17:28:00,
2013-02-23 11:33:00,29.1,-2.4,29.89,South,190,9.0,11.0,25,0.00,,,0.00,meteohub,2013-02-23 17:33:00,
2013-02-23 11:38:00,29.5,-2.0,29.89,SSW,212,5.0,11.0,25,0.00,,,0.00,meteohub,2013-02-23 17:38:00,
2013-02-23 11:43:00,30.6,-1.1,29.89,WSW,249,3.0,11.0,25,0.00,,,0.00,meteohub,2013-02-23 17:43:00,
2013-02-23 11:48:00,32.0,0.1,29.89,SSW,201,6.0,11.0,25,0.00,,,0.00,meteohub,2013-02-23 17:48:00,
2013-02-23 11:54:00,32.0,0.1,29.89,South,188,7.0,9.0,25,0.00,,,0.00,meteohub,2013-02-23 17:54:00,
2013-02-23 11:59:00,32.4,0.5,29.89,SW,218,3.0,10.0,25,0.00,,,0.00,meteohub,2013-02-23 17:59:00,
2013-02-23 12:04:00,32.9,0.9,29.89,SSW,208,8.0,10.0,25,0.00,,,0.00,meteohub,2013-02-23 18:04:00,
2013-02-23 12:09:00,32.9,0.9,29.89,SW,236,4.0,10.0,25,0.00,,,0.00,meteohub,2013-02-23 18:09:00,
2013-02-23 12:14:00,33.3,1.2,29.86,SW,214,8.0,13.0,25,0.00,,,0.00,meteohub,2013-02-23 18:14:00,
2013-02-23 12:19:00,33.6,1.6,29.86,SW,214,11.0,13.0,25,0.00,,,0.00,meteohub,2013-02-23 18:19:00,
2013-02-23 12:24:00,33.6,1.6,29.86,WSW,241,5.0,13.0,25,0.00,,,0.00,meteohub,2013-02-23 18:24:00,
2013-02-23 12:29:00,34.0,1.8,29.86,South,180,9.0,13.0,25,0.00,,,0.00,meteohub,2013-02-23 18:29:00,
2013-02-23 12:34:00,33.4,1.4,29.86,South,179,8.0,13.0,25,0.00,,,0.00,meteohub,2013-02-23 18:34:00,
2013-02-23 12:39:00,33.6,1.6,29.86,SW,232,5.0,13.0,25,0.00,,,0.00,meteohub,2013-02-23 18:39:00,
2013-02-23 12:44:00,34.5,2.3,29.86,SW,223,6.0,13.0,25,0.00,,,0.00,meteohub,2013-02-23 18:44:00,
2013-02-23 12:49:00,35.1,2.8,29.86,SW,219,8.0,11.0,25,0.00,,,0.00,meteohub,2013-02-23 18:49:00,
2013-02-23 12:55:00,34.7,2.5,29.86,SSW,208,8.0,11.0,25,0.00,,,0.00,meteohub,2013-02-23 18:55:00,
2013-02-23 13:00:00,33.6,1.6,29.86,South,190,5.0,11.0,25,0.00,,,0.00,meteohub,2013-02-23 19:00:00,
2013-02-23 13:05:00,34.0,1.8,29.86,WSW,252,6.0,11.0,25,0.00,,,0.00,meteohub,2013-02-23 19:05:00,
2013-02-23 13:10:00,34.7,2.5,29.86,SW,223,6.0,11.0,25,0.00,,,0.00,meteohub,2013-02-23 19:10:00,
2013-02-23 13:15:00,34.3,2.1,29.86,West,261,5.0,9.0,25,0.00,,,0.00,meteohub,2013-02-23 19:15:00,
2013-02-23 13:20:00,34.3,2.1,29.86,SW,222,8.0,9.0,25,0.00,,,0.00,meteohub,2013-02-23 19:20:00,
2013-02-23 13:25:00,34.3,2.1,29.86,SW,214,5.0,9.0,25,0.00,,,0.00,meteohub,2013-02-23 19:25:00,
2013-02-23 13:30:00,34.5,2.3,29.86,SSW,205,6.0,8.0,25,0.00,,,0.00,meteohub,2013-02-23 19:30:00,
2013-02-23 13:35:00,34.9,2.7,29.86,SSW,210,8.0,10.0,25,0.00,,,0.00,meteohub,2013-02-23 19:35:00,
2013-02-23 13:40:00,35.1,2.8,29.86,SW,217,5.0,11.0,25,0.00,,,0.00,meteohub,2013-02-23 19:40:00,
2013-02-23 13:45:00,35.1,2.8,29.83,South,190,8.0,11.0,25,0.00,,,0.00,meteohub,2013-02-23 19:45:00,
2013-02-23 13:51:00,34.9,2.7,29.83,SSW,210,8.0,13.0,25,0.00,,,0.00,meteohub,2013-02-23 19:51:00,
2013-02-23 13:56:00,35.1,2.8,29.83,SW,227,10.0,13.0,25,0.00,,,0.00,meteohub,2013-02-23 19:56:00,
2013-02-23 14:01:00,35.4,3.0,29.83,SW,225,6.0,13.0,25,0.00,,,0.00,meteohub,2013-02-23 20:01:00,
2013-02-23 14:06:00,35.6,2.3,29.83,SW,219,8.0,13.0,24,0.00,,,0.00,meteohub,2013-02-23 20:06:00,
2013-02-23 14:11:00,36.0,2.7,29.83,SW,234,4.0,13.0,24,0.00,,,0.00,meteohub,2013-02-23 20:11:00,
2013-02-23 14:16:00,36.0,2.7,29.83,SW,221,7.0,13.0,24,0.00,,,0.00,meteohub,2013-02-23 20:16:00,
2013-02-23 14:21:00,35.8,2.5,29.83,SW,222,8.0,13.0,24,0.00,,,0.00,meteohub,2013-02-23 20:21:00,
2013-02-23 14:26:00,35.8,2.5,29.83,SSW,197,8.0,11.0,24,0.00,,,0.00,meteohub,2013-02-23 20:26:00,
2013-02-23 14:31:00,36.0,2.7,29.83,SSW,200,6.0,11.0,24,0.00,,,0.00,meteohub,2013-02-23 20:31:00,
2013-02-23 14:36:00,36.1,2.8,29.83,SW,230,8.0,11.0,24,0.00,,,0.00,meteohub,2013-02-23 20:36:00,
2013-02-23 14:41:00,36.3,3.0,29.83,SW,229,8.0,13.0,24,0.00,,,0.00,meteohub,2013-02-23 20:41:00,
2013-02-23 14:46:00,36.3,3.0,29.83,SW,215,5.0,13.0,24,0.00,,,0.00,meteohub,2013-02-23 20:46:00,
2013-02-23 14:51:00,36.3,3.0,29.83,SW,224,8.0,13.0,24,0.00,,,0.00,meteohub,2013-02-23 20:51:00,
2013-02-23 14:57:00,36.3,3.0,29.83,SW,232,4.0,11.0,24,0.00,,,0.00,meteohub,2013-02-23 20:57:00,
2013-02-23 15:02:00,36.3,3.0,29.83,SSW,198,9.0,12.0,24,0.00,,,0.00,meteohub,2013-02-23 21:02:00,
2013-02-23 15:07:00,36.5,3.2,29.83,SW,224,8.0,12.0,24,0.00,,,0.00,meteohub,2013-02-23 21:07:00,
2013-02-23 15:12:00,36.5,3.2,29.83,SSW,201,6.0,11.0,24,0.00,,,0.00,meteohub,2013-02-23 21:12:00,
2013-02-23 15:17:00,36.7,3.2,29.83,SW,232,9.0,11.0,24,0.00,,,0.00,meteohub,2013-02-23 21:17:00,
2013-02-23 15:22:00,36.9,3.4,29.83,South,177,8.0,11.0,24,0.00,,,0.00,meteohub,2013-02-23 21:22:00,
2013-02-23 15:27:00,36.9,3.4,29.83,SW,215,8.0,11.0,24,0.00,,,0.00,meteohub,2013-02-23 21:27:00,
2013-02-23 15:32:00,37.0,3.6,29.83,SSW,202,8.0,11.0,24,0.00,,,0.00,meteohub,2013-02-23 21:32:00,
2013-02-23 15:37:00,37.2,3.7,29.83,SSW,198,8.0,11.0,24,0.00,,,0.00,meteohub,2013-02-23 21:37:00,
2013-02-23 15:42:00,37.4,3.9,29.83,SSW,199,13.0,13.0,24,0.00,,,0.00,meteohub,2013-02-23 21:42:00,
2013-02-23 15:47:00,37.4,3.9,29.80,SSW,208,9.0,13.0,24,0.00,,,0.00,meteohub,2013-02-23 21:47:00,
2013-02-23 15:52:00,37.6,4.1,29.80,South,190,8.0,13.0,24,0.00,,,0.00,meteohub,2013-02-23 21:52:00,
2013-02-23 15:57:00,37.6,4.1,29.80,WSW,244,4.0,13.0,24,0.00,,,0.00,meteohub,2013-02-23 21:57:00,
2013-02-23 16:02:00,37.8,4.3,29.80,SSW,205,6.0,13.0,24,0.00,,,0.00,meteohub,2013-02-23 22:02:00,
2013-02-23 16:07:00,37.9,4.3,29.80,SSW,207,8.0,13.0,24,0.00,,,0.00,meteohub,2013-02-23 22:07:00,
2013-02-23 16:12:00,37.9,4.3,29.80,SSW,204,7.0,11.0,24,0.00,,,0.00,meteohub,2013-02-23 22:12:00,
2013-02-23 16:17:00,37.9,4.3,29.80,SW,232,6.0,10.0,24,0.04,,,0.04,meteohub,2013-02-23 22:17:00,
2013-02-23 16:22:00,38.3,4.6,29.80,SW,234,6.0,9.0,24,0.04,,,0.04,meteohub,2013-02-23 22:22:00,
2013-02-23 16:27:00,38.3,4.6,29.80,SSW,197,6.0,9.0,24,0.04,,,0.04,meteohub,2013-02-23 22:27:00,
2013-02-23 16:32:00,38.3,4.6,29.80,SW,217,13.0,13.0,24,0.04,,,0.04,meteohub,2013-02-23 22:32:00,
2013-02-23 16:37:00,38.1,4.5,29.80,SSW,198,6.0,13.0,24,0.04,,,0.04,meteohub,2013-02-23 22:37:00,
2013-02-23 16:42:00,38.1,4.5,29.80,South,178,6.0,13.0,24,0.04,,,0.04,meteohub,2013-02-23 22:42:00,
2013-02-23 16:47:00,37.6,4.1,29.80,South,172,9.0,13.0,24,0.04,,,0.04,meteohub,2013-02-23 22:47:00,
2013-02-23 16:52:00,37.4,3.9,29.80,South,174,8.0,11.0,24,0.04,,,0.04,meteohub,2013-02-23 22:52:00,
2013-02-23 16:57:00,37.0,3.6,29.80,SW,218,12.0,13.0,24,0.04,,,0.04,meteohub,2013-02-23 22:57:00,
2013-02-23 17:02:00,37.0,3.6,29.80,South,186,8.0,13.0,24,0.04,,,0.04,meteohub,2013-02-23 23:02:00,
2013-02-23 17:07:00,36.9,3.4,29.80,SSE,168,7.0,13.0,24,0.04,,,0.04,meteohub,2013-02-23 23:07:00,
2013-02-23 17:12:00,36.7,3.2,29.80,SSW,205,8.0,12.0,24,0.04,,,0.04,meteohub,2013-02-23 23:12:00,
2013-02-23 17:17:00,36.7,5.9,29.80,SSW,198,6.0,13.0,27,0.00,,,0.04,meteohub,2013-02-23 23:17:00,
2013-02-23 17:23:00,36.3,5.5,29.80,SSW,210,8.0,13.0,27,0.00,,,0.04,meteohub,2013-02-23 23:23:00,
2013-02-23 17:28:00,36.3,5.5,29.80,SSW,210,5.0,13.0,27,0.00,,,0.04,meteohub,2013-02-23 23:28:00,
2013-02-23 17:33:00,36.1,5.4,29.80,South,176,11.0,11.0,27,0.00,,,0.04,meteohub,2013-02-23 23:33:00,
2013-02-23 17:38:00,35.8,5.0,29.80,SSW,193,8.0,11.0,27,0.00,,,0.04,meteohub,2013-02-23 23:38:00,
2013-02-23 17:43:00,35.8,5.0,29.80,SSW,212,6.0,11.0,27,0.00,,,0.04,meteohub,2013-02-23 23:43:00,
2013-02-23 17:48:00,35.6,4.8,29.80,South,191,8.0,11.0,27,0.00,,,0.04,meteohub,2013-02-23 23:48:00,
2013-02-23 17:53:00,35.4,4.8,29.80,SW,222,3.0,11.0,27,0.00,,,0.04,meteohub,2013-02-23 23:53:00,
2013-02-23 17:58:00,35.1,4.5,29.80,South,185,6.0,10.0,27,0.00,,,0.04,meteohub,2013-02-23 23:58:00,
2013-02-23 18:04:00,34.9,6.6,29.80,South,191,4.0,8.0,30,0.00,,,0.04,meteohub,2013-02-24 00:04:00,
2013-02-23 18:09:00,34.9,6.6,29.80,SSW,208,8.0,8.0,30,0.00,,,0.04,meteohub,2013-02-24 00:09:00,
2013-02-23 18:14:00,34.5,6.3,29.80,SSW,194,6.0,8.0,30,0.00,,,0.04,meteohub,2013-02-24 00:14:00,
2013-02-23 18:19:00,34.3,6.1,29.80,SSW,200,6.0,9.0,30,0.00,,,0.04,meteohub,2013-02-24 00:19:00,
2013-02-23 18:24:00,34.2,5.9,29.80,SSW,195,8.0,9.0,30,0.00,,,0.04,meteohub,2013-02-24 00:24:00,
2013-02-23 18:29:00,34.0,5.7,29.80,SSW,201,6.0,9.0,30,0.00,,,0.04,meteohub,2013-02-24 00:29:00,
2013-02-23 18:34:00,33.8,5.7,29.80,South,170,3.0,8.0,30,0.00,,,0.04,meteohub,2013-02-24 00:34:00,
2013-02-23 18:39:00,33.6,6.3,29.80,SSW,192,4.0,8.0,31,0.00,,,0.04,meteohub,2013-02-24 00:39:00,
2013-02-23 18:44:00,33.4,6.1,29.80,SSW,194,6.0,10.0,31,0.00,,,0.04,meteohub,2013-02-24 00:44:00,
2013-02-23 18:49:00,33.3,5.9,29.80,South,187,4.0,10.0,31,0.00,,,0.04,meteohub,2013-02-24 00:49:00,
2013-02-23 18:54:00,33.1,5.7,29.80,SSW,192,6.0,10.0,31,0.00,,,0.04,meteohub,2013-02-24 00:54:00,
2013-02-23 19:00:00,32.7,5.4,29.83,SSW,200,4.0,8.0,31,0.00,,,0.04,meteohub,2013-02-24 01:00:00,
2013-02-23 19:05:00,32.5,5.2,29.83,South,181,5.0,8.0,31,0.00,,,0.04,meteohub,2013-02-24 01:05:00,
2013-02-23 19:10:00,32.4,5.0,29.83,South,182,6.0,8.0,31,0.00,,,0.04,meteohub,2013-02-24 01:10:00,
2013-02-23 19:15:00,32.2,5.0,29.83,South,183,8.0,8.0,31,0.00,,,0.04,meteohub,2013-02-24 01:15:00,
2013-02-23 19:20:00,32.2,5.0,29.83,SSW,206,4.0,8.0,31,0.00,,,0.04,meteohub,2013-02-24 01:20:00,
2013-02-23 19:25:00,31.8,5.4,29.83,South,174,7.0,8.0,32,0.00,,,0.04,meteohub,2013-02-24 01:25:00,
2013-02-23 19:30:00,31.6,5.2,29.83,South,191,5.0,8.0,32,0.00,,,0.04,meteohub,2013-02-24 01:30:00,
2013-02-23 19:35:00,31.5,5.0,29.83,South,183,5.0,8.0,32,0.00,,,0.04,meteohub,2013-02-24 01:35:00,
2013-02-23 19:40:00,31.3,4.8,29.83,South,171,5.0,8.0,32,0.00,,,0.04,meteohub,2013-02-24 01:40:00,
2013-02-23 19:45:00,31.1,4.6,29.83,South,179,7.0,8.0,32,0.00,,,0.04,meteohub,2013-02-24 01:45:00,
2013-02-23 19:51:00,31.1,5.4,29.83,SSW,199,6.0,8.0,33,0.00,,,0.04,meteohub,2013-02-24 01:51:00,
2013-02-23 19:56:00,30.9,5.2,29.83,SW,221,6.0,8.0,33,0.00,,,0.04,meteohub,2013-02-24 01:56:00,
2013-02-23 20:01:00,30.9,5.2,29.83,SSW,195,7.0,9.0,33,0.00,,,0.04,meteohub,2013-02-24 02:01:00,
2013-02-23 20:06:00,30.7,5.0,29.83,South,188,5.0,9.0,33,0.00,,,0.04,meteohub,2013-02-24 02:06:00,
2013-02-23 20:11:00,30.7,5.0,29.83,South,183,6.0,9.0,33,0.00,,,0.04,meteohub,2013-02-24 02:11:00,
2013-02-23 20:16:00,30.7,5.0,29.83,South,186,4.0,8.0,33,0.00,,,0.04,meteohub,2013-02-24 02:16:00,
2013-02-23 20:21:00,30.7,5.0,29.83,SSW,194,6.0,8.0,33,0.00,,,0.04,meteohub,2013-02-24 02:21:00,
2013-02-23 20:26:00,30.6,4.8,29.83,WSW,241,6.0,11.0,33,0.00,,,0.04,meteohub,2013-02-24 02:26:00,
2013-02-23 20:32:00,30.2,5.2,29.83,South,181,5.0,11.0,34,0.00,,,0.04,meteohub,2013-02-24 02:32:00,
2013-02-23 20:37:00,30.2,5.2,29.83,SSW,196,6.0,9.0,34,0.00,,,0.04,meteohub,2013-02-24 02:37:00,
2013-02-23 20:42:00,30.0,5.7,29.83,SSW,209,5.0,8.0,35,0.00,,,0.04,meteohub,2013-02-24 02:42:00,
2013-02-23 20:47:00,30.0,5.7,29.83,SW,224,5.0,8.0,35,0.00,,,0.04,meteohub,2013-02-24 02:47:00,
2013-02-23 20:52:00,30.0,5.7,29.83,SSW,192,8.0,8.0,35,0.00,,,0.04,meteohub,2013-02-24 02:52:00,
2013-02-23 20:57:00,30.0,5.7,29.83,SSW,194,6.0,8.0,35,0.00,,,0.04,meteohub,2013-02-24 02:57:00,
2013-02-23 21:02:00,29.8,5.5,29.83,SW,229,6.0,8.0,35,0.00,,,0.04,meteohub,2013-02-24 03:02:00,
2013-02-23 21:07:00,29.8,5.5,29.83,SSW,199,5.0,8.0,35,0.00,,,0.04,meteohub,2013-02-24 03:07:00,
2013-02-23 21:12:00,29.8,5.5,29.83,SSW,192,4.0,9.0,35,0.00,,,0.04,meteohub,2013-02-24 03:12:00,
2013-02-23 21:17:00,29.8,5.5,29.83,SSW,212,3.0,9.0,35,0.00,,,0.04,meteohub,2013-02-24 03:17:00,
2013-02-23 21:22:00,29.7,5.4,29.83,SSW,208,5.0,8.0,35,0.00,,,0.04,meteohub,2013-02-24 03:22:00,
2013-02-23 21:27:00,29.7,5.4,29.83,SSW,199,7.0,8.0,35,0.00,,,0.04,meteohub,2013-02-24 03:27:00,
2013-02-23 21:32:00,29.7,5.4,29.83,SSW,205,6.0,9.0,35,0.00,,,0.04,meteohub,2013-02-24 03:32:00,
2013-02-23 21:37:00,29.7,5.4,29.83,SSW,197,6.0,11.0,35,0.00,,,0.04,meteohub,2013-02-24 03:37:00,
2013-02-23 21:42:00,29.7,5.4,29.83,SSW,194,5.0,11.0,35,0.00,,,0.04,meteohub,2013-02-24 03:42:00,
2013-02-23 21:47:00,29.5,5.2,29.86,SSW,203,6.0,11.0,35,0.00,,,0.04,meteohub,2013-02-24 03:47:00,
2013-02-23 21:52:00,29.5,5.2,29.86,SSW,209,4.0,9.0,35,0.00,,,0.04,meteohub,2013-02-24 03:52:00,
2013-02-23 21:57:00,29.3,5.0,29.86,SW,214,6.0,8.0,35,0.00,,,0.04,meteohub,2013-02-24 03:57:00,
2013-02-23 22:02:00,29.3,5.0,29.86,SSW,195,5.0,8.0,35,0.00,,,0.04,meteohub,2013-02-24 04:02:00,
2013-02-23 22:07:00,29.1,4.8,29.86,South,176,6.0,8.0,35,0.00,,,0.04,meteohub,2013-02-24 04:07:00,
2013-02-23 22:13:00,29.1,4.8,29.86,South,185,4.0,8.0,35,0.00,,,0.04,meteohub,2013-02-24 04:13:00,
2013-02-23 22:18:00,29.1,4.8,29.86,South,190,6.0,8.0,35,0.00,,,0.04,meteohub,2013-02-24 04:18:00,
2013-02-23 22:23:00,28.9,4.6,29.86,SSW,196,5.0,8.0,35,0.00,,,0.04,meteohub,2013-02-24 04:23:00,
2013-02-23 22:28:00,28.8,4.5,29.86,SW,221,5.0,8.0,35,0.00,,,0.04,meteohub,2013-02-24 04:28:00,
2013-02-23 22:33:00,28.8,4.5,29.86,SW,225,5.0,8.0,35,0.00,,,0.04,meteohub,2013-02-24 04:33:00,
2013-02-23 22:38:00,28.6,4.5,29.86,SW,219,4.0,7.0,35,0.00,,,0.04,meteohub,2013-02-24 04:38:00,
2013-02-23 22:43:00,28.6,4.5,29.86,SW,216,5.0,8.0,35,0.00,,,0.04,meteohub,2013-02-24 04:43:00,
2013-02-23 22:48:00,28.4,4.3,29.86,SW,214,5.0,8.0,35,0.00,,,0.04,meteohub,2013-02-24 04:48:00,
2013-02-23 22:53:00,28.4,4.3,29.86,South,186,5.0,8.0,35,0.00,,,0.04,meteohub,2013-02-24 04:53:00,
2013-02-23 22:58:00,28.2,4.1,29.86,SSW,212,5.0,6.0,35,0.00,,,0.04,meteohub,2013-02-24 04:58:00,
2013-02-23 23:00:00,28.2,4.1,29.86,SSW,204,4.0,9.0,35,0.00,,,0.04,meteohub,2013-02-24 05:00:00,
2013-02-23 23:01:00,28.2,4.1,29.86,SSW,193,5.0,9.0,35,0.00,,,0.04,meteohub,2013-02-24 05:01:00,
2013-02-23 23:02:00,28.2,4.1,29.86,SSW,206,3.0,9.0,35,0.00,,,0.04,meteohub,2013-02-24 05:02:00,
2013-02-23 23:07:00,28.0,4.5,29.86,SSW,196,5.0,9.0,36,0.00,,,0.04,meteohub,2013-02-24 05:07:00,
2013-02-23 23:12:00,28.2,4.6,29.86,SSW,200,3.0,9.0,36,0.00,,,0.04,meteohub,2013-02-24 05:12:00,
2013-02-23 23:17:00,28.0,3.9,29.86,SSW,195,8.0,8.0,35,0.00,,,0.04,meteohub,2013-02-24 05:17:00,
2013-02-23 23:22:00,28.0,3.9,29.86,SSW,209,5.0,8.0,35,0.00,,,0.04,meteohub,2013-02-24 05:22:00,
2013-02-23 23:27:00,27.9,3.7,29.86,SSW,208,7.0,8.0,35,0.00,,,0.04,meteohub,2013-02-24 05:27:00,
2013-02-23 23:32:00,27.9,3.7,29.86,SW,216,6.0,8.0,35,0.00,,,0.04,meteohub,2013-02-24 05:32:00,
2013-02-23 23:37:00,27.9,3.7,29.86,SSW,209,5.0,8.0,35,0.00,,,0.04,meteohub,2013-02-24 05:37:00,
2013-02-23 23:42:00,27.9,3.7,29.86,South,189,5.0,8.0,35,0.00,,,0.04,meteohub,2013-02-24 05:42:00,
2013-02-23 23:47:00,27.7,3.6,29.86,SSW,202,4.0,8.0,35,0.00,,,0.04,meteohub,2013-02-24 05:47:00,
2013-02-23 23:52:00,27.7,3.6,29.86,SW,231,5.0,8.0,35,0.00,,,0.04,meteohub,2013-02-24 05:52:00,
2013-02-23 23:57:00,27.5,3.4,29.86,South,191,6.0,8.0,35,0.00,,,0.04,meteohub,2013-02-24 05:57:00,